Time;durP1;ratioP1;P1;durP2;ratioP2;P2;SDS_P1;SDS_P2;PMS_P1;PMS_P2;Temp;Humidity;BMP_temperature;BMP_pressure;BME280_temperature;BME280_humidity;BME280_pressure;Samples;Min_cycle;Max_cycle;Signal;HPM_P1;HPM_P2
2021/01/09 00:00:28;;;;;;;16.05;7.05;;;;;;;2.44;74.91;100089.50;3817311;23;20053;-76
2021/01/09 00:02:01;;;;;;;19.05;9.38;;;;;;;2.49;74.79;100093.56;3812961;23;20462;-77
2021/01/09 00:03:33;;;;;;;14.25;7.90;;;;;;;2.53;74.86;100093.34;3815988;23;20084;-77
2021/01/09 00:05:05;;;;;;;18.02;8.98;;;;;;;2.55;74.61;100083.56;3814494;23;20033;-76
2021/01/09 00:06:38;;;;;;;15.95;8.90;;;;;;;2.54;74.38;100085.38;3817050;23;20044;-76
2021/01/09 00:08:10;;;;;;;18.17;10.20;;;;;;;2.46;74.51;100085.81;3813247;23;20349;-78
2021/01/09 00:09:41;;;;;;;16.38;9.68;;;;;;;2.37;74.52;100082.88;3817221;23;20026;-77
2021/01/09 00:11:13;;;;;;;18.23;9.50;;;;;;;2.37;74.68;100085.50;3814053;23;20028;-77
2021/01/09 00:12:44;;;;;;;15.93;8.98;;;;;;;2.41;74.64;100090.50;3818458;23;20104;-77
2021/01/09 00:14:15;;;;;;;19.58;10.55;;;;;;;2.46;74.41;100092.88;3814338;23;20052;-76
2021/01/09 00:15:47;;;;;;;15.23;9.10;;;;;;;2.40;74.26;100086.19;3817628;23;20028;-77
2021/01/09 00:17:19;;;;;;;18.02;9.45;;;;;;;2.35;74.40;100090.88;3815993;23;20022;-76
2021/01/09 00:18:51;;;;;;;18.90;10.90;;;;;;;2.35;74.51;100085.59;3816663;23;20029;-76
2021/01/09 00:20:23;;;;;;;17.00;9.60;;;;;;;2.31;74.55;100098.13;3814264;23;20069;-76
2021/01/09 00:21:55;;;;;;;19.40;10.80;;;;;;;2.32;74.56;100099.84;3817391;23;20123;-77
2021/01/09 00:23:27;;;;;;;20.33;11.00;;;;;;;2.36;74.67;100100.50;3814053;23;20037;-76
2021/01/09 00:24:58;;;;;;;18.88;10.23;;;;;;;2.34;74.64;100099.72;3816761;23;20053;-76
2021/01/09 00:26:29;;;;;;;18.33;10.57;;;;;;;2.32;74.68;100097.19;3812889;23;20021;-76
2021/01/09 00:28:00;;;;;;;;;;;;;;;2.20;74.86;100097.06;3818333;23;20036;-75
2021/01/09 00:29:31;;;;;;;16.80;9.57;;;;;;;2.24;74.84;100101.22;3815828;23;20262;-78
2021/01/09 00:31:05;;;;;;;17.85;9.63;;;;;;;2.27;74.74;100104.50;3817681;23;20029;-76
2021/01/09 00:32:36;;;;;;;17.63;9.02;;;;;;;2.27;74.84;100101.03;3816011;23;20439;-76
2021/01/09 00:34:08;;;;;;;;;;;;;;;2.19;74.91;100101.47;3821151;23;20057;-76
2021/01/09 00:35:39;;;;;;;15.88;9.27;;;;;;;2.21;75.02;100104.06;3816461;23;19916;-76
2021/01/09 00:37:10;;;;;;;17.30;10.02;;;;;;;2.23;74.86;100104.78;3818590;23;20045;-76
2021/01/09 00:38:41;;;;;;;19.33;9.88;;;;;;;2.24;74.81;100110.00;3816504;23;20025;-75
2021/01/09 00:40:13;;;;;;;19.15;10.75;;;;;;;2.23;74.95;100108.28;3818458;23;20045;-77
2021/01/09 00:41:46;;;;;;;18.60;9.90;;;;;;;2.22;74.79;100109.22;3816537;23;20021;-76
2021/01/09 00:43:16;;;;;;;17.13;10.30;;;;;;;2.24;74.95;100112.63;3819192;23;20033;-77
2021/01/09 00:44:48;;;;;;;;;;;;;;;2.16;75.09;100106.97;3815761;23;20700;-76
2021/01/09 00:46:20;;;;;;;16.08;8.73;;;;;;;2.25;74.82;100116.97;3818253;23;19951;-77
2021/01/09 00:47:52;;;;;;;14.60;7.80;;;;;;;2.34;74.55;100107.66;3814715;23;20129;-77
2021/01/09 00:49:26;;;;;;;17.20;9.00;;;;;;;2.41;74.39;100114.25;3817529;23;20029;-77
2021/01/09 00:50:57;;;;;;;15.32;9.13;;;;;;;2.41;74.55;100108.97;3816173;23;20065;-77
2021/01/09 00:52:28;;;;;;;17.08;8.77;;;;;;;2.40;74.62;100115.22;3817341;23;20025;-77
2021/01/09 00:53:59;;;;;;;16.95;9.52;;;;;;;2.41;74.38;100114.25;3815554;23;20677;-77
2021/01/09 00:55:30;;;;;;;;;;;;;;;2.25;74.31;100111.69;3819684;23;20450;-77
2021/01/09 00:57:01;;;;;;;19.85;9.70;;;;;;;2.24;74.57;100122.31;3815758;23;20618;-77
2021/01/09 00:58:33;;;;;;;19.98;9.65;;;;;;;2.17;74.85;100130.59;3819884;23;20037;-77
2021/01/09 01:00:05;;;;;;;21.15;11.50;;;;;;;2.21;74.94;100119.88;3824938;23;20018;-77
2021/01/09 01:01:37;;;;;;;17.60;9.80;;;;;;;2.23;74.69;100120.63;3830125;23;20021;-77
2021/01/09 01:03:08;;;;;;;17.25;9.82;;;;;;;2.23;74.70;100118.84;3828464;23;20026;-76
2021/01/09 01:04:39;;;;;;;19.25;10.73;;;;;;;2.23;74.57;100124.13;3830187;23;20040;-77
2021/01/09 01:06:10;;;;;;;;;;;;;;;2.11;75.07;100120.41;3828933;23;20081;-77
2021/01/09 01:07:42;;;;;;;18.27;10.35;;;;;;;2.18;74.81;100119.13;3831939;23;19917;-76
2021/01/09 01:09:13;;;;;;;15.60;8.95;;;;;;;2.28;74.60;100116.78;3828954;23;20025;-76
2021/01/09 01:10:45;;;;;;;18.48;9.82;;;;;;;2.30;74.40;100120.19;3832526;23;20021;-76
2021/01/09 01:12:17;;;;;;;19.65;10.52;;;;;;;2.33;74.38;100114.72;3832143;23;20025;-77
2021/01/09 01:13:49;;;;;;;18.08;9.77;;;;;;;2.32;74.42;100120.94;3831747;23;20037;-77
2021/01/09 01:15:21;;;;;;;17.52;10.05;;;;;;;2.26;74.76;100113.41;3829882;23;20021;-76
2021/01/09 01:16:53;;;;;;;16.88;9.30;;;;;;;2.30;74.45;100121.97;3831748;23;20021;-76
2021/01/09 01:18:25;;;;;;;20.15;10.10;;;;;;;2.29;74.51;100117.63;3829129;23;20100;-77
2021/01/09 01:19:56;;;;;;;19.20;9.90;;;;;;;2.23;74.61;100126.75;3830228;23;20026;-76
2021/01/09 01:21:27;;;;;;;18.75;10.02;;;;;;;2.28;74.60;100127.31;3831294;23;20026;-77
2021/01/09 01:22:58;;;;;;;15.73;8.68;;;;;;;2.41;74.32;100121.34;3829497;23;20021;-77
2021/01/09 01:24:29;;;;;;;;;;;;;;;2.30;74.41;100119.34;3831468;23;20274;-77
2021/01/09 01:26:03;;;;;;;16.35;9.27;;;;;;;2.41;74.33;100130.09;3815316;23;20409;-77
2021/01/09 01:27:35;;;;;;;15.93;9.43;;;;;;;2.42;74.50;100133.59;3820214;23;20338;-77
2021/01/09 01:29:06;;;;;;;20.30;10.38;;;;;;;2.47;74.50;100131.53;3816867;23;20055;-77
2021/01/09 01:30:37;;;;;;;17.02;9.05;;;;;;;2.51;74.10;100127.78;3818387;23;20021;-77
2021/01/09 01:32:10;;;;;;;16.40;9.15;;;;;;;2.60;74.05;100129.88;3816644;23;20088;-76
2021/01/09 01:33:41;;;;;;;18.00;10.57;;;;;;;2.62;74.04;100130.63;3818017;23;20025;-77
2021/01/09 01:35:13;;;;;;;16.58;8.55;;;;;;;2.65;74.06;100140.16;3816257;23;27007;-78
2021/01/09 01:36:48;;;;;;;17.60;10.15;;;;;;;2.65;73.81;100134.88;3818754;23;20525;-77
2021/01/09 01:38:19;;;;;;;17.45;10.00;;;;;;;2.59;74.04;100141.34;3814770;23;20025;-76
2021/01/09 01:39:50;;;;;;;18.05;10.00;;;;;;;2.59;73.80;100135.25;3817920;23;20029;-77
2021/01/09 01:41:21;;;;;;;16.40;9.90;;;;;;;2.49;73.80;100145.47;3816414;23;20021;-77
2021/01/09 01:42:52;;;;;;;;;;;;;;;2.34;74.64;100141.94;3817807;23;20028;-77
2021/01/09 01:44:24;;;;;;;15.55;9.05;;;;;;;2.31;74.54;100148.25;3815997;23;19951;-76
2021/01/09 01:45:54;;;;;;;20.95;10.90;;;;;;;2.37;74.44;100136.50;3817540;23;20022;-77
2021/01/09 01:47:26;;;;;;;;;;;;;;;2.24;74.65;100135.50;3816089;23;20023;-77
2021/01/09 01:48:59;;;;;;;15.68;8.05;;;;;;;2.35;74.51;100141.00;3817991;23;19924;-77
2021/01/09 01:50:30;;;;;;;16.67;9.27;;;;;;;2.40;74.37;100136.34;3814704;23;20022;-76
2021/01/09 01:52:01;;;;;;;;;;;;;;;2.26;74.61;100138.91;3818773;23;20028;-77
2021/01/09 01:53:33;;;;;;;13.60;6.55;;;;;;;2.37;74.58;100127.72;3815973;23;19944;-77
2021/01/09 01:55:06;;;;;;;15.55;8.90;;;;;;;2.42;74.21;100133.59;3816425;23;20022;-77
2021/01/09 01:56:37;;;;;;;17.80;8.02;;;;;;;2.43;74.39;100133.50;3815325;23;20017;-77
2021/01/09 01:58:09;;;;;;;15.90;9.15;;;;;;;2.31;74.75;100136.88;3817333;23;20784;-77
2021/01/09 01:59:41;;;;;;;14.93;9.15;;;;;;;2.35;74.78;100127.81;3813726;23;20021;-77
2021/01/09 02:01:15;;;;;;;16.88;9.02;;;;;;;2.44;74.38;100131.72;3817812;23;20029;-77
2021/01/09 02:02:48;;;;;;;16.85;8.07;;;;;;;2.51;74.48;100135.69;3814182;23;20028;-77
2021/01/09 02:04:19;;;;;;;17.40;8.88;;;;;;;2.53;74.60;100131.19;3816965;23;20478;-77
2021/01/09 02:05:59;;;;;;;18.20;8.95;;;;;;;2.54;73.89;100129.38;3816703;23;20036;-77
2021/01/09 02:07:41;;;;;;;16.27;8.60;;;;;;;2.60;74.18;100123.72;3818790;23;20024;-77
2021/01/09 02:09:17;;;;;;;12.57;6.85;;;;;;;2.65;74.19;100129.59;3815435;23;20378;-77
2021/01/09 02:10:55;;;;;;;17.25;9.02;;;;;;;2.65;74.07;100137.50;3816496;23;20040;-77
2021/01/09 02:12:36;;;;;;;19.02;11.27;;;;;;;2.52;73.87;100128.59;3815288;23;20028;-77
2021/01/09 02:14:14;;;;;;;17.15;10.65;;;;;;;2.46;74.05;100127.19;3815761;23;20025;-77
2021/01/09 02:15:45;;;;;;;21.05;9.48;;;;;;;2.42;74.32;100138.88;3817799;23;20033;-77
2021/01/09 02:17:18;;;;;;;16.75;9.30;;;;;;;2.47;74.45;100134.16;3814801;23;20070;-77
2021/01/09 02:18:52;;;;;;;20.48;11.15;;;;;;;2.36;74.71;100139.25;3817366;23;20026;-77
2021/01/09 02:20:27;;;;;;;18.38;10.68;;;;;;;2.22;74.80;100138.25;3813982;23;20357;-76
2021/01/09 02:21:59;;;;;;;18.20;9.80;;;;;;;2.21;75.11;100135.72;3817361;23;20084;-76
2021/01/09 02:23:32;;;;;;;17.80;10.45;;;;;;;2.22;75.05;100138.25;3813326;23;20029;-76
2021/01/09 02:25:04;;;;;;;19.02;11.30;;;;;;;2.18;75.16;100132.31;3817083;23;20026;-76
2021/01/09 02:26:36;;;;;;;21.23;11.60;;;;;;;2.14;75.28;100135.22;3812874;23;20025;-77
2021/01/09 02:28:07;;;;;;;18.48;10.55;;;;;;;2.13;75.33;100138.78;3816047;23;20072;-77
2021/01/09 02:29:45;;;;;;;19.83;10.73;;;;;;;2.15;75.23;100145.66;3815061;23;20111;-77
2021/01/09 02:31:21;;;;;;;17.55;9.43;;;;;;;2.29;75.13;100136.09;3818120;23;20054;-76
2021/01/09 02:33:02;;;;;;;15.02;8.07;;;;;;;2.27;75.13;100136.16;3814326;23;20111;-77
2021/01/09 02:34:38;;;;;;;16.88;8.63;;;;;;;2.39;74.77;100129.34;3817179;23;20031;-76
2021/01/09 02:36:10;;;;;;;18.13;9.60;;;;;;;2.38;74.90;100132.94;3814150;23;20029;-76
2021/01/09 02:37:43;;;;;;;21.17;10.82;;;;;;;2.34;74.80;100126.97;3816440;23;20026;-76
2021/01/09 02:39:15;;;;;;;17.80;10.27;;;;;;;2.34;74.81;100126.97;3814730;23;20021;-78
2021/01/09 02:40:46;;;;;;;15.98;9.10;;;;;;;2.41;74.83;100132.72;3816152;23;20060;-77
2021/01/09 02:42:19;;;;;;;20.17;10.50;;;;;;;2.40;74.71;100128.41;3815028;23;20032;-77
2021/01/09 02:43:50;;;;;;;18.25;9.35;;;;;;;2.39;74.76;100125.84;3817935;23;20025;-77
2021/01/09 02:45:22;;;;;;;19.50;9.93;;;;;;;2.41;74.66;100129.25;3814228;23;20079;-77
2021/01/09 02:46:53;;;;;;;17.30;10.02;;;;;;;2.42;74.62;100128.31;3814426;23;20085;-77
2021/01/09 02:48:24;;;;;;;17.85;10.43;;;;;;;2.39;74.76;100128.47;3815076;23;20025;-76
2021/01/09 02:49:55;;;;;;;19.23;10.57;;;;;;;2.35;74.62;100125.19;3814975;23;20026;-77
2021/01/09 02:51:27;;;;;;;18.88;10.25;;;;;;;2.34;74.86;100129.63;3818351;23;20037;-76
2021/01/09 02:52:58;;;;;;;25.23;11.20;;;;;;;2.30;74.85;100133.38;3816970;23;20390;-76
2021/01/09 02:54:30;;;;;;;20.85;10.43;;;;;;;2.25;74.95;100142.50;3822403;23;20030;-76
2021/01/09 02:56:01;;;;;;;22.63;12.00;;;;;;;2.22;75.02;100137.41;3820567;23;20333;-77
2021/01/09 02:57:33;;;;;;;18.35;10.27;;;;;;;2.21;75.18;100146.25;3822257;23;20351;-76
2021/01/09 02:59:04;;;;;;;19.13;11.45;;;;;;;2.22;75.10;100142.69;3815685;23;20045;-76
2021/01/09 03:00:35;;;;;;;;;;;;;;;1.99;75.55;100147.47;3819502;23;20040;-76
2021/01/09 03:02:06;;;;;;;20.73;10.77;;;;;;;2.05;75.76;100141.84;3814812;23;19974;-76
2021/01/09 03:03:38;;;;;;;23.05;11.15;;;;;;;2.05;75.81;100139.22;3787300;23;20051;-76
2021/01/09 03:05:11;;;;;;;20.52;10.82;;;;;;;2.05;75.85;100144.47;3811834;23;20076;-76
2021/01/09 03:06:42;;;;;;;21.55;10.93;;;;;;;2.01;75.76;100146.44;3813889;23;20477;-76
2021/01/09 03:08:13;;;;;;;16.70;9.00;;;;;;;2.18;75.55;100148.13;3813627;23;20080;-76
2021/01/09 03:09:45;;;;;;;;;;;;;;;2.20;75.33;100142.75;3814830;23;20025;-76
2021/01/09 03:11:17;;;;;;;21.77;11.00;;;;;;;2.22;75.11;100150.59;3813568;23;19916;-76
2021/01/09 03:12:48;;;;;;;18.90;10.38;;;;;;;2.15;75.29;100144.81;3815373;23;20053;-76
2021/01/09 03:14:19;;;;;;;16.95;9.80;;;;;;;2.23;74.95;100147.84;3815526;23;20029;-76
2021/01/09 03:15:51;;;;;;;19.45;10.27;;;;;;;2.27;75.09;100148.53;3815065;23;20426;-76
2021/01/09 03:17:24;;;;;;;20.48;10.10;;;;;;;2.24;75.05;100152.19;3816933;23;20116;-77
2021/01/09 03:18:55;;;;;;;17.35;10.02;;;;;;;2.22;75.05;100154.06;3813019;23;20089;-76
2021/01/09 03:20:26;;;;;;;19.88;10.60;;;;;;;2.21;75.06;100149.72;3811110;23;20029;-76
2021/01/09 03:21:58;;;;;;;16.35;8.85;;;;;;;2.23;75.26;100150.50;3817680;23;20022;-76
2021/01/09 03:23:29;;;;;;;21.02;11.15;;;;;;;2.26;75.18;100149.47;3813340;23;20092;-76
2021/01/09 03:25:01;;;;;;;20.40;11.25;;;;;;;2.23;75.20;100144.34;3823276;23;20528;-77
2021/01/09 03:26:32;;;;;;;19.45;11.65;;;;;;;2.16;75.42;100151.81;3818574;23;20022;-76
2021/01/09 03:28:04;;;;;;;19.85;10.68;;;;;;;2.16;75.39;100150.00;3817150;23;20021;-76
2021/01/09 03:29:35;;;;;;;22.20;11.55;;;;;;;2.16;75.38;100154.44;3814968;23;20022;-76
2021/01/09 03:31:08;;;;;;;20.15;10.93;;;;;;;2.11;75.86;100156.47;3817782;23;20033;-77
2021/01/09 03:32:39;;;;;;;19.55;10.77;;;;;;;2.13;75.57;100155.44;3816826;23;20025;-78
2021/01/09 03:34:10;;;;;;;19.70;10.82;;;;;;;2.13;75.65;100158.06;3817696;23;20022;-77
2021/01/09 03:35:42;;;;;;;21.67;10.73;;;;;;;2.18;75.56;100156.03;3815689;23;20036;-76
2021/01/09 03:37:15;;;;;;;19.23;10.23;;;;;;;2.18;75.68;100160.44;3816576;23;20660;-76
2021/01/09 03:38:46;;;;;;;17.15;10.13;;;;;;;2.16;75.72;100165.81;3814280;23;20026;-76
2021/01/09 03:40:18;;;;;;;18.77;10.48;;;;;;;2.22;75.66;100156.72;3816225;23;20026;-76
2021/01/09 03:41:49;;;;;;;17.00;9.25;;;;;;;2.26;75.33;100160.03;3815852;23;20036;-76
2021/01/09 03:43:20;;;;;;;13.75;8.00;;;;;;;2.23;75.67;100153.13;3816356;23;20026;-76
2021/01/09 03:44:52;;;;;;;20.10;10.85;;;;;;;2.30;75.45;100156.28;3815101;23;20021;-76
2021/01/09 03:46:23;;;;;;;22.48;10.93;;;;;;;2.31;75.21;100158.81;3818937;23;20040;-77
2021/01/09 03:47:55;;;;;;;18.50;10.40;;;;;;;2.27;75.32;100157.28;3817064;23;20033;-77
2021/01/09 03:49:26;;;;;;;19.65;10.13;;;;;;;2.29;75.32;100162.50;3818433;23;20029;-77
2021/01/09 03:50:57;;;;;;;19.63;10.73;;;;;;;2.27;75.43;100154.63;3816330;23;20017;-76
2021/01/09 03:52:28;;;;;;;21.65;10.65;;;;;;;2.25;75.43;100161.81;3817661;23;20025;-77
2021/01/09 03:54:00;;;;;;;22.42;11.60;;;;;;;2.34;75.29;100163.06;3817274;23;20049;-77
2021/01/09 03:55:32;;;;;;;17.55;9.23;;;;;;;2.41;75.12;100158.28;3819033;23;20025;-78
2021/01/09 03:57:03;;;;;;;17.08;10.65;;;;;;;2.41;75.21;100153.00;3816459;23;20100;-77
2021/01/09 03:58:34;;;;;;;17.00;9.40;;;;;;;2.37;75.21;100160.25;3819002;23;20079;-76
2021/01/09 04:00:34;;;;;;;20.08;10.60;;;;;;;2.30;74.92;100165.03;3814240;23;20029;-77
2021/01/09 04:02:05;;;;;;;17.42;10.13;;;;;;;2.31;75.40;100161.44;3815253;23;20022;-76
2021/01/09 04:03:36;;;;;;;19.95;10.25;;;;;;;2.35;75.32;100164.75;3816173;23;20039;-76
2021/01/09 04:05:09;;;;;;;20.27;10.18;;;;;;;2.35;75.14;100159.47;3818053;23;20095;-76
2021/01/09 04:06:39;;;;;;;18.08;9.98;;;;;;;2.34;75.23;100163.06;3816205;23;20128;-77
2021/01/09 04:08:10;;;;;;;;;;;;;;;2.22;75.32;100169.91;3818072;23;20018;-76
2021/01/09 04:09:41;;;;;;;18.80;10.68;;;;;;;2.23;75.30;100163.69;3815358;23;20457;-76
2021/01/09 04:11:14;;;;;;;18.00;8.65;;;;;;;2.25;75.28;100161.81;3815136;23;20021;-77
2021/01/09 04:12:45;;;;;;;21.95;11.43;;;;;;;2.26;75.54;100166.16;3814355;23;20406;-77
2021/01/09 04:14:16;;;;;;;18.20;9.20;;;;;;;2.30;75.58;100167.66;3817829;23;20651;-77
2021/01/09 04:15:47;;;;;;;16.90;10.02;;;;;;;2.37;75.34;100169.94;3816092;23;20040;-76
2021/01/09 04:17:18;;;;;;;;;;;;;;;2.24;75.44;100168.03;3818173;23;20048;-77
2021/01/09 04:18:50;;;;;;;16.13;8.05;;;;;;;2.38;75.45;100166.38;3815778;23;19921;-77
2021/01/09 04:20:21;;;;;;;16.85;9.55;;;;;;;2.43;75.29;100162.53;3819126;23;20029;-77
2021/01/09 04:21:53;;;;;;;17.33;9.25;;;;;;;2.45;75.13;100170.38;3815244;23;20708;-77
2021/01/09 04:23:24;;;;;;;21.80;11.68;;;;;;;2.37;75.06;100162.88;3818825;23;20725;-77
2021/01/09 04:24:57;;;;;;;18.33;10.45;;;;;;;2.31;75.20;100161.44;3816113;23;20402;-77
2021/01/09 04:26:50;;;;;;;18.80;11.38;;;;;;;2.29;75.34;100159.84;3816303;23;20021;-77
2021/01/09 04:28:44;;;;;;;20.30;11.13;;;;;;;2.26;75.44;100170.56;3816316;23;20063;-77
2021/01/09 04:30:35;;;;;;;19.95;10.50;;;;;;;2.23;75.50;100166.31;3815064;23;20022;-76
2021/01/09 04:32:08;;;;;;;21.88;11.20;;;;;;;2.21;75.56;100168.19;3817919;23;20032;-77
2021/01/09 04:33:40;;;;;;;19.52;10.07;;;;;;;2.22;75.60;100164.63;3814872;23;20029;-77
2021/01/09 04:35:11;;;;;;;19.20;10.93;;;;;;;2.26;75.68;100168.81;3818336;23;20025;-77
2021/01/09 04:36:42;;;;;;;;;;;;;;;2.25;75.69;100169.72;3817581;23;20034;-77
2021/01/09 04:38:16;;;;;;;14.48;7.45;;;;;;;2.37;75.23;100160.25;3818578;23;19956;-77
2021/01/09 04:39:46;;;;;;;15.10;7.82;;;;;;;2.43;75.04;100164.31;3815407;23;20056;-77
2021/01/09 04:41:19;;;;;;;;;;;;;;;2.37;75.03;100173.44;3818827;23;20025;-76
2021/01/09 04:42:52;;;;;;;17.20;8.50;;;;;;;2.43;75.08;100165.16;3815988;23;19982;-76
2021/01/09 04:44:23;;;;;;;17.10;9.60;;;;;;;2.46;75.15;100172.03;3818580;23;20045;-77
2021/01/09 04:45:55;;;;;;;18.85;9.65;;;;;;;2.52;75.03;100170.84;3816167;23;20471;-77
2021/01/09 04:47:27;;;;;;;18.08;9.40;;;;;;;2.56;74.81;100165.28;3815889;23;20487;-77
2021/01/09 04:48:59;;;;;;;23.50;9.25;;;;;;;2.60;74.84;100171.22;3818606;23;20025;-76
2021/01/09 04:50:33;;;;;;;18.15;10.32;;;;;;;2.60;74.89;100172.09;3814966;23;20049;-76
2021/01/09 04:52:06;;;;;;;19.95;10.43;;;;;;;2.62;74.75;100170.22;3818560;23;20064;-77
2021/01/09 04:53:39;;;;;;;20.58;11.48;;;;;;;2.61;74.88;100173.81;3815229;23;20045;-76
2021/01/09 04:57:38;;;;;;;18.38;10.05;;;;;;;2.59;75.05;100175.69;3810536;23;20121;-77
2021/01/09 04:59:13;;;;;;;19.10;9.68;;;;;;;2.62;74.87;100174.63;3817239;23;20029;-76
2021/01/09 05:00:47;;;;;;;17.67;9.40;;;;;;;2.68;74.66;100179.56;3815299;23;20029;-77
2021/01/09 05:02:19;;;;;;;17.65;9.93;;;;;;;2.71;74.59;100173.25;3816775;23;20034;-76
2021/01/09 05:03:50;;;;;;;20.38;11.02;;;;;;;2.72;74.63;100182.88;3815347;23;20069;-76
2021/01/09 05:05:22;;;;;;;22.38;11.02;;;;;;;2.75;74.61;100182.66;3816988;23;20037;-76
2021/01/09 05:06:53;;;;;;;18.55;10.38;;;;;;;2.72;74.36;100183.72;3813592;23;20048;-76
2021/01/09 05:08:24;;;;;;;;;;;;;;;2.56;74.64;100188.19;3820431;23;20025;-77
2021/01/09 05:10:03;;;;;;;17.40;9.07;;;;;;;2.58;74.50;100181.88;3816389;23;19928;-77
2021/01/09 05:11:35;;;;;;;23.75;11.95;;;;;;;2.59;74.77;100188.03;3812785;23;20470;-76
2021/01/09 05:13:06;;;;;;;19.80;11.43;;;;;;;2.63;74.76;100182.47;3818301;23;20022;-77
2021/01/09 05:14:38;;;;;;;;;;;;;;;2.52;74.80;100186.66;3814485;23;20025;-77
2021/01/09 05:16:10;;;;;;;20.45;10.52;;;;;;;2.63;74.59;100193.03;3817782;23;19955;-76
2021/01/09 05:17:42;;;;;;;18.13;9.93;;;;;;;2.71;74.44;100187.28;3813513;23;20636;-77
2021/01/09 05:19:13;;;;;;;17.20;10.25;;;;;;;2.74;74.39;100187.13;3816875;23;20026;-77
2021/01/09 05:20:47;;;;;;;20.85;11.32;;;;;;;2.74;74.56;100192.41;3815108;23;20033;-77
2021/01/09 05:22:18;;;;;;;24.25;12.35;;;;;;;2.75;74.39;100203.78;3817942;23;20053;-77
2021/01/09 05:23:54;;;;;;;21.13;11.60;;;;;;;2.74;74.48;100194.19;3814283;23;20024;-77
2021/01/09 05:25:29;;;;;;;19.50;10.45;;;;;;;2.77;74.51;100197.50;3817249;23;20025;-77
2021/01/09 05:27:02;;;;;;;19.65;10.45;;;;;;;2.75;74.51;100188.81;3814944;23;20017;-76
2021/01/09 05:28:33;;;;;;;22.35;11.40;;;;;;;2.77;74.51;100192.22;3818313;23;20025;-77
2021/01/09 05:30:07;;;;;;;17.10;9.35;;;;;;;2.80;74.37;100185.91;3816465;23;20014;-76
2021/01/09 05:31:39;;;;;;;20.30;10.75;;;;;;;2.84;74.31;100190.03;3818215;23;20053;-77
2021/01/09 05:33:10;;;;;;;22.85;11.13;;;;;;;2.85;74.29;100191.75;3815968;23;20078;-77
2021/01/09 05:34:46;;;;;;;20.65;10.95;;;;;;;2.80;74.25;100185.91;3817945;23;20053;-77
2021/01/09 05:36:18;;;;;;;22.75;11.18;;;;;;;2.80;74.23;100188.53;3815304;23;20026;-77
2021/01/09 05:37:53;;;;;;;22.35;12.23;;;;;;;2.77;74.33;100186.06;3824427;23;20025;-77
2021/01/09 05:39:25;;;;;;;23.95;11.57;;;;;;;2.81;74.27;100192.91;3826537;23;20021;-78
2021/01/09 05:41:03;;;;;;;21.20;12.05;;;;;;;2.78;73.98;100193.06;3830015;23;20037;-78
2021/01/09 05:42:35;;;;;;;21.83;11.32;;;;;;;2.84;74.23;100195.31;3826819;23;20017;-77
2021/01/09 05:44:09;;;;;;;24.48;11.90;;;;;;;2.82;74.25;100194.59;3827250;23;20053;-77
2021/01/09 05:45:41;;;;;;;18.92;10.35;;;;;;;2.79;74.40;100200.06;3826484;23;20045;-77
2021/01/09 05:47:13;;;;;;;23.10;12.43;;;;;;;2.78;74.39;100198.34;3826562;23;20053;-77
2021/01/09 05:48:44;;;;;;;24.55;13.38;;;;;;;2.70;74.24;100203.22;3815888;23;20473;-77
2021/01/09 05:50:16;;;;;;;25.70;12.55;;;;;;;2.60;74.42;100203.78;3818065;23;20022;-77
2021/01/09 05:51:47;;;;;;;24.15;11.80;;;;;;;2.61;74.60;100202.84;3815814;23;20029;-76
2021/01/09 05:53:41;;;;;;;21.58;12.07;;;;;;;2.49;74.52;100203.53;3818041;23;20053;-76
2021/01/09 05:55:13;;;;;;;21.23;11.43;;;;;;;2.56;74.78;100202.25;3817170;23;20049;-76
2021/01/09 05:56:48;;;;;;;24.25;12.45;;;;;;;2.64;74.34;100207.06;3814622;23;20097;-77
2021/01/09 05:58:20;;;;;;;28.73;14.45;;;;;;;2.49;74.64;100206.19;3818296;23;20040;-77
2021/01/09 05:59:53;;;;;;;24.80;13.27;;;;;;;2.41;74.92;100206.63;3814729;23;20096;-78
2021/01/09 06:01:27;;;;;;;27.95;14.00;;;;;;;2.32;75.30;100208.00;3814922;23;20100;-79
2021/01/09 06:03:11;;;;;;;22.67;13.80;;;;;;;2.20;75.40;100205.22;3814833;23;20458;-77
2021/01/09 06:04:45;;;;;;;26.85;12.90;;;;;;;2.21;75.91;100202.50;3817323;23;20060;-76
2021/01/09 06:06:39;;;;;;;21.70;12.10;;;;;;;2.17;75.56;100201.81;3815280;23;20033;-77
2021/01/09 06:08:18;;;;;;;25.52;13.13;;;;;;;2.14;75.82;100201.16;3816802;23;20025;-77
2021/01/09 06:09:56;;;;;;;24.95;14.48;;;;;;;2.13;75.81;100208.19;3814226;23;20084;-78
2021/01/09 06:11:30;;;;;;;23.23;13.25;;;;;;;2.09;76.09;100216.38;3813065;23;20111;-79
2021/01/09 06:13:02;;;;;;;24.83;12.77;;;;;;;2.06;76.14;100208.66;3816743;23;20018;-77
2021/01/09 06:14:35;;;;;;;25.52;14.02;;;;;;;2.07;76.19;100219.09;3815215;23;20029;-77
2021/01/09 06:16:07;;;;;;;24.30;13.25;;;;;;;2.08;76.06;100219.97;3817901;23;20057;-77
2021/01/09 06:17:40;;;;;;;25.90;13.95;;;;;;;2.08;76.08;100214.69;3814194;23;20021;-77
2021/01/09 06:19:21;;;;;;;24.17;13.85;;;;;;;2.09;75.97;100219.00;3817456;23;20026;-77
2021/01/09 06:20:54;;;;;;;24.80;12.90;;;;;;;2.10;76.06;100225.97;3814044;23;20045;-76
2021/01/09 06:22:27;;;;;;;20.77;11.45;;;;;;;2.20;75.66;100216.63;3817102;23;20096;-77
2021/01/09 06:24:00;;;;;;;21.38;11.60;;;;;;;2.27;75.69;100212.69;3816443;23;20018;-76
2021/01/09 06:25:35;;;;;;;21.20;11.90;;;;;;;2.27;75.79;100215.31;3817443;23;20101;-77
2021/01/09 06:27:10;;;;;;;22.38;11.50;;;;;;;2.34;75.34;100218.47;3814303;23;20470;-76
2021/01/09 06:28:50;;;;;;;22.52;12.02;;;;;;;2.35;75.39;100222.81;3817699;23;20072;-76
2021/01/09 06:30:25;;;;;;;24.15;12.02;;;;;;;2.27;75.42;100225.03;3815198;23;20028;-76
2021/01/09 06:31:59;;;;;;;22.17;11.80;;;;;;;2.26;75.56;100224.19;3817242;23;20026;-76
2021/01/09 06:33:37;;;;;;;22.48;12.35;;;;;;;2.29;75.15;100225.81;3813662;23;20060;-77
2021/01/09 06:35:10;;;;;;;20.92;11.90;;;;;;;2.25;75.36;100233.06;3818362;23;20025;-77
2021/01/09 06:36:43;;;;;;;22.35;11.63;;;;;;;2.24;75.41;100228.72;3816440;23;20024;-76
2021/01/09 06:38:15;;;;;;;17.92;9.85;;;;;;;2.25;75.31;100227.78;3817042;23;20068;-76
2021/01/09 06:39:48;;;;;;;20.85;11.80;;;;;;;2.25;75.25;100222.50;3816042;23;20055;-76
2021/01/09 06:41:21;;;;;;;23.98;12.68;;;;;;;2.22;75.17;100222.66;3817821;23;20355;-77
2021/01/09 06:42:55;;;;;;;20.02;10.30;;;;;;;2.20;75.30;100221.06;3815066;23;20667;-76
2021/01/09 06:44:28;;;;;;;19.10;10.07;;;;;;;2.21;75.36;100226.22;3815011;23;20079;-76
2021/01/09 06:45:59;;;;;;;20.80;10.98;;;;;;;2.18;75.55;100231.66;3819264;23;20076;-77
2021/01/09 06:47:32;;;;;;;21.42;11.20;;;;;;;2.18;75.47;100227.25;3816080;23;20017;-76
2021/01/09 06:49:05;;;;;;;18.13;9.90;;;;;;;2.22;75.33;100233.22;3818281;23;20104;-76
2021/01/09 06:50:37;;;;;;;24.75;11.90;;;;;;;2.17;75.47;100237.91;3814719;23;20030;-76
2021/01/09 06:52:09;;;;;;;19.75;10.52;;;;;;;2.19;75.46;100238.66;3817472;23;20033;-76
2021/01/09 06:53:39;;;;;;;18.45;9.65;;;;;;;2.18;75.42;100240.44;3816852;23;20037;-77
2021/01/09 06:55:10;;;;;;;;;;;;;;;2.09;75.58;100240.09;3818055;23;20028;-76
2021/01/09 06:56:42;;;;;;;19.38;10.07;;;;;;;2.14;75.61;100236.28;3815959;23;20309;-77
2021/01/09 06:58:15;;;;;;;20.75;10.35;;;;;;;2.17;75.33;100240.56;3826159;23;20036;-76
2021/01/09 06:59:48;;;;;;;24.92;12.32;;;;;;;2.18;75.40;100243.09;3816305;23;20049;-79
2021/01/09 07:01:23;;;;;;;22.45;12.45;;;;;;;2.15;75.34;100243.25;3819839;23;20087;-77
2021/01/09 07:03:10;;;;;;;17.65;9.90;;;;;;;2.11;75.37;100251.41;3816050;23;20021;-76
2021/01/09 07:04:57;;;;;;;18.15;10.20;;;;;;;2.12;75.35;100254.00;3817926;23;20017;-76
2021/01/09 07:07:02;;;;;;;28.00;14.63;;;;;;;2.00;75.62;100252.88;3813957;23;20021;-78
2021/01/09 07:08:35;;;;;;;21.02;10.93;;;;;;;2.05;75.76;100257.88;3776637;23;20026;-78
2021/01/09 07:10:19;;;;;;;21.30;11.32;;;;;;;2.07;75.60;100257.81;3778046;23;20078;-77
2021/01/09 07:11:50;;;;;;;23.25;12.40;;;;;;;2.06;75.72;100258.75;3773169;23;20022;-77
2021/01/09 07:13:23;;;;;;;23.50;13.00;;;;;;;2.05;75.70;100255.25;3773161;23;20049;-77
2021/01/09 07:15:01;;;;;;;22.13;11.48;;;;;;;2.01;75.78;100254.56;3814142;23;20336;-76